FFT820 KLAS-KSNA
Flight info
| Callsign | FFT820 |
|---|---|
| Flight time | 0h 34m |
| Altitude | 26000 |
| Route | RADYR2 SLVRR FEYLA DSNEE6 |
| Aircraft | A320/M-SDE3FGHIRWY/LB1 |
Departure
| Time | 2026-05-07 22:46 |
|---|---|
| Airport | Harry Reid International Airport (KLAS) |
Arrival
| Time | 2026-05-07 23:21 |
|---|---|
| Airport | John Wayne Orange County International Airport (KSNA) |
| Time | Latitude | Longitude | Altitude | Speed | Heading |
|---|---|---|---|---|---|
| 2026-05-07 22:20 | 36.08533 | -115.13899 | 2188 ft | 0 kts | 360° |
| 2026-05-07 22:34 | 36.08514 | -115.13899 | 2191 ft | 4 kts | 360° |
| 2026-05-07 22:35 | 36.08491 | -115.13899 | 2189 ft | 2 kts | 360° |
| 2026-05-07 22:35 | 36.08470 | -115.13903 | 2189 ft | 4 kts | 59° |
| 2026-05-07 22:35 | 36.08465 | -115.13932 | 2190 ft | 4 kts | 90° |
| 2026-05-07 22:35 | 36.08465 | -115.13938 | 2190 ft | 0 kts | 90° |
| 2026-05-07 22:38 | 36.08465 | -115.13930 | 2189 ft | 5 kts | 90° |
| 2026-05-07 22:38 | 36.08464 | -115.13843 | 2190 ft | 15 kts | 90° |
| 2026-05-07 22:38 | 36.08413 | -115.13692 | 2189 ft | 21 kts | 109° |
| 2026-05-07 22:38 | 36.08419 | -115.13538 | 2192 ft | 17 kts | 89° |
| 2026-05-07 22:39 | 36.08357 | -115.13417 | 2189 ft | 18 kts | 136° |
| 2026-05-07 22:39 | 36.08261 | -115.13375 | 2191 ft | 14 kts | 179° |
| 2026-05-07 22:39 | 36.08168 | -115.13375 | 2190 ft | 12 kts | 180° |
| 2026-05-07 22:39 | 36.08087 | -115.13375 | 2190 ft | 11 kts | 179° |
| 2026-05-07 22:40 | 36.08020 | -115.13375 | 2192 ft | 9 kts | 180° |
| 2026-05-07 22:40 | 36.07963 | -115.13375 | 2189 ft | 7 kts | 180° |
| 2026-05-07 22:40 | 36.07918 | -115.13375 | 2190 ft | 6 kts | 179° |
| 2026-05-07 22:40 | 36.07894 | -115.13375 | 2190 ft | 0 kts | 180° |
| 2026-05-07 22:41 | 36.07893 | -115.13375 | 2190 ft | 0 kts | 180° |
| 2026-05-07 22:41 | 36.07869 | -115.13374 | 2188 ft | 10 kts | 179° |
| 2026-05-07 22:42 | 36.07828 | -115.13297 | 2189 ft | 15 kts | 89° |
| 2026-05-07 22:42 | 36.07829 | -115.13146 | 2192 ft | 20 kts | 89° |
| 2026-05-07 22:42 | 36.07829 | -115.12958 | 2188 ft | 23 kts | 89° |
| 2026-05-07 22:42 | 36.07828 | -115.12757 | 2189 ft | 23 kts | 89° |
| 2026-05-07 22:43 | 36.07830 | -115.12553 | 2188 ft | 24 kts | 90° |
| 2026-05-07 22:43 | 36.07831 | -115.12362 | 2188 ft | 19 kts | 91° |
| 2026-05-07 22:43 | 36.07808 | -115.12233 | 2190 ft | 16 kts | 131° |
| 2026-05-07 22:43 | 36.07756 | -115.12159 | 2188 ft | 7 kts | 129° |
| 2026-05-07 22:44 | 36.07740 | -115.12136 | 2188 ft | 0 kts | 135° |
| 2026-05-07 22:44 | 36.07738 | -115.12134 | 2188 ft | 3 kts | 137° |
| 2026-05-07 22:44 | 36.07646 | -115.12129 | 2190 ft | 15 kts | 219° |
| 2026-05-07 22:45 | 36.07642 | -115.12220 | 2190 ft | 0 kts | 268° |
| 2026-05-07 22:45 | 36.07642 | -115.12280 | 2189 ft | 32 kts | 272° |
| 2026-05-07 22:45 | 36.07645 | -115.12888 | 2188 ft | 106 kts | 269° |
| 2026-05-07 22:45 | 36.07642 | -115.14059 | 2190 ft | 162 kts | 270° |
| 2026-05-07 22:46 | 36.07642 | -115.15618 | 2549 ft | 194 kts | 272° |
| 2026-05-07 22:46 | 36.07658 | -115.17379 | 3274 ft | 213 kts | 271° |
| 2026-05-07 22:46 | 36.07653 | -115.19231 | 4181 ft | 220 kts | 269° |
| 2026-05-07 22:46 | 36.07588 | -115.21205 | 4907 ft | 241 kts | 263° |
| 2026-05-07 22:47 | 36.07327 | -115.23326 | 5827 ft | 254 kts | 259° |
| 2026-05-07 22:47 | 36.06641 | -115.25327 | 6626 ft | 259 kts | 231° |
| 2026-05-07 22:47 | 36.05193 | -115.26735 | 7140 ft | 278 kts | 203° |
| 2026-05-07 22:47 | 36.03334 | -115.27568 | 7734 ft | 289 kts | 200° |
| 2026-05-07 22:48 | 36.01423 | -115.28406 | 7947 ft | 292 kts | 200° |
| 2026-05-07 22:48 | 35.99513 | -115.29250 | 8013 ft | 292 kts | 198° |
| 2026-05-07 22:48 | 35.97519 | -115.29811 | 8270 ft | 298 kts | 192° |
| 2026-05-07 22:48 | 35.95486 | -115.30310 | 9250 ft | 298 kts | 192° |
| 2026-05-07 22:49 | 35.93445 | -115.30814 | 10142 ft | 301 kts | 192° |
| 2026-05-07 22:49 | 35.91317 | -115.31342 | 10524 ft | 324 kts | 192° |
| 2026-05-07 22:49 | 35.89050 | -115.31905 | 10960 ft | 339 kts | 192° |
| 2026-05-07 22:49 | 35.86706 | -115.32483 | 11636 ft | 347 kts | 191° |
| 2026-05-07 22:50 | 35.84344 | -115.33063 | 12330 ft | 354 kts | 191° |
| 2026-05-07 22:50 | 35.81907 | -115.33659 | 13037 ft | 360 kts | 191° |
| 2026-05-07 22:50 | 35.79435 | -115.34265 | 13732 ft | 366 kts | 190° |
| 2026-05-07 22:50 | 35.76919 | -115.34881 | 14379 ft | 371 kts | 190° |
| 2026-05-07 22:51 | 35.74384 | -115.35502 | 15006 ft | 375 kts | 190° |
| 2026-05-07 22:51 | 35.71812 | -115.36126 | 15658 ft | 379 kts | 190° |
| 2026-05-07 22:51 | 35.69213 | -115.36754 | 16299 ft | 383 kts | 190° |
| 2026-05-07 22:51 | 35.66588 | -115.37393 | 16944 ft | 386 kts | 190° |
| 2026-05-07 22:52 | 35.63952 | -115.38111 | 17576 ft | 391 kts | 196° |
| 2026-05-07 22:52 | 35.61428 | -115.39399 | 18213 ft | 396 kts | 209° |
| 2026-05-07 22:52 | 35.59151 | -115.41324 | 18739 ft | 399 kts | 222° |
| 2026-05-07 22:52 | 35.57210 | -115.43768 | 19287 ft | 401 kts | 229° |
| 2026-05-07 22:53 | 35.55336 | -115.46324 | 19838 ft | 405 kts | 229° |
| 2026-05-07 22:53 | 35.53434 | -115.48904 | 20387 ft | 408 kts | 229° |
| 2026-05-07 22:53 | 35.51519 | -115.51492 | 20941 ft | 412 kts | 229° |
| 2026-05-07 22:53 | 35.49580 | -115.54105 | 21475 ft | 415 kts | 229° |
| 2026-05-07 22:54 | 35.47624 | -115.56736 | 22000 ft | 419 kts | 229° |
| 2026-05-07 22:54 | 35.45653 | -115.59383 | 22492 ft | 422 kts | 229° |
| 2026-05-07 22:54 | 35.43664 | -115.62054 | 22984 ft | 426 kts | 229° |
| 2026-05-07 22:54 | 35.41663 | -115.64744 | 23486 ft | 429 kts | 229° |
| 2026-05-07 22:55 | 35.39644 | -115.67457 | 23899 ft | 432 kts | 229° |
| 2026-05-07 22:55 | 35.37611 | -115.70188 | 24295 ft | 435 kts | 229° |
| 2026-05-07 22:55 | 35.35561 | -115.72941 | 24693 ft | 439 kts | 229° |
| 2026-05-07 22:55 | 35.33492 | -115.75712 | 25095 ft | 442 kts | 229° |
| 2026-05-07 22:56 | 35.31410 | -115.78492 | 25483 ft | 445 kts | 229° |
| 2026-05-07 22:56 | 35.29309 | -115.81291 | 25824 ft | 448 kts | 229° |
| 2026-05-07 22:56 | 35.27191 | -115.84113 | 25918 ft | 455 kts | 229° |
| 2026-05-07 22:56 | 35.25021 | -115.87002 | 25929 ft | 467 kts | 228° |
| 2026-05-07 22:57 | 35.22794 | -115.89967 | 25921 ft | 479 kts | 228° |
| 2026-05-07 22:57 | 35.20525 | -115.92948 | 25917 ft | 490 kts | 227° |
| 2026-05-07 22:57 | 35.18147 | -115.95987 | 25912 ft | 498 kts | 227° |
| 2026-05-07 22:57 | 35.15721 | -115.99030 | 25904 ft | 501 kts | 226° |
| 2026-05-07 22:58 | 35.13277 | -116.02064 | 25899 ft | 502 kts | 226° |
| 2026-05-07 22:58 | 35.10826 | -116.05100 | 25897 ft | 502 kts | 226° |
| 2026-05-07 22:58 | 35.08379 | -116.08144 | 25896 ft | 502 kts | 226° |
| 2026-05-07 22:58 | 35.05943 | -116.11193 | 25895 ft | 502 kts | 226° |
| 2026-05-07 22:59 | 35.03512 | -116.14248 | 25892 ft | 502 kts | 226° |
| 2026-05-07 22:59 | 35.01082 | -116.17306 | 25889 ft | 502 kts | 226° |
| 2026-05-07 22:59 | 34.98654 | -116.20362 | 25888 ft | 502 kts | 226° |
| 2026-05-07 22:59 | 34.96222 | -116.23418 | 25887 ft | 502 kts | 226° |
| 2026-05-07 23:00 | 34.93788 | -116.26466 | 25887 ft | 502 kts | 226° |
| 2026-05-07 23:00 | 34.91350 | -116.29516 | 25882 ft | 502 kts | 226° |
| 2026-05-07 23:00 | 34.88918 | -116.32555 | 25882 ft | 502 kts | 226° |
| 2026-05-07 23:00 | 34.86483 | -116.35608 | 25885 ft | 502 kts | 227° |
| 2026-05-07 23:01 | 34.84064 | -116.38677 | 25892 ft | 502 kts | 227° |
| 2026-05-07 23:01 | 34.81657 | -116.41761 | 25900 ft | 503 kts | 227° |
| 2026-05-07 23:01 | 34.79255 | -116.44845 | 25908 ft | 503 kts | 227° |
| 2026-05-07 23:01 | 34.76843 | -116.47932 | 25912 ft | 503 kts | 227° |
| 2026-05-07 23:02 | 34.74425 | -116.51013 | 25920 ft | 503 kts | 227° |
| 2026-05-07 23:02 | 34.72006 | -116.54086 | 25922 ft | 503 kts | 227° |
| 2026-05-07 23:02 | 34.70402 | -116.56119 | 25925 ft | 503 kts | 227° |
| 2026-05-07 23:02 | 34.67944 | -116.59147 | 25925 ft | 503 kts | 225° |
| 2026-05-07 23:03 | 34.65395 | -116.62060 | 25906 ft | 504 kts | 223° |
| 2026-05-07 23:03 | 34.62772 | -116.64893 | 25055 ft | 506 kts | 221° |
| 2026-05-07 23:03 | 34.60111 | -116.67663 | 24465 ft | 497 kts | 221° |
| 2026-05-07 23:03 | 34.57506 | -116.70350 | 23920 ft | 488 kts | 221° |
| 2026-05-07 23:04 | 34.54952 | -116.73012 | 23272 ft | 481 kts | 221° |
| 2026-05-07 23:04 | 34.52444 | -116.75672 | 22552 ft | 476 kts | 222° |
| 2026-05-07 23:04 | 34.49983 | -116.78322 | 21873 ft | 471 kts | 222° |
| 2026-05-07 23:04 | 34.47550 | -116.80959 | 21223 ft | 466 kts | 222° |
| 2026-05-07 23:05 | 34.45150 | -116.83564 | 20564 ft | 462 kts | 222° |
| 2026-05-07 23:05 | 34.42766 | -116.86149 | 19951 ft | 457 kts | 222° |
| 2026-05-07 23:05 | 34.40419 | -116.88683 | 19618 ft | 446 kts | 222° |
| 2026-05-07 23:05 | 34.38140 | -116.91136 | 19500 ft | 430 kts | 222° |
| 2026-05-07 23:06 | 34.35939 | -116.93498 | 19379 ft | 416 kts | 222° |
| 2026-05-07 23:06 | 34.33811 | -116.95781 | 19275 ft | 403 kts | 222° |
| 2026-05-07 23:06 | 34.31740 | -116.97994 | 19153 ft | 391 kts | 222° |
| 2026-05-07 23:06 | 34.29733 | -117.00135 | 19042 ft | 379 kts | 222° |
| 2026-05-07 23:07 | 34.27804 | -117.02195 | 18828 ft | 371 kts | 222° |
| 2026-05-07 23:07 | 34.25738 | -117.04042 | 18513 ft | 368 kts | 211° |
| 2026-05-07 23:07 | 34.23544 | -117.05628 | 18145 ft | 367 kts | 211° |
| 2026-05-07 23:07 | 34.21355 | -117.07209 | 17689 ft | 366 kts | 211° |
| 2026-05-07 23:08 | 34.19182 | -117.08777 | 17316 ft | 363 kts | 211° |
| 2026-05-07 23:08 | 34.17018 | -117.10299 | 16789 ft | 356 kts | 205° |
| 2026-05-07 23:08 | 34.14773 | -117.11529 | 16120 ft | 353 kts | 203° |
| 2026-05-07 23:08 | 34.12542 | -117.12727 | 15481 ft | 349 kts | 203° |
| 2026-05-07 23:09 | 34.10335 | -117.13910 | 14882 ft | 345 kts | 203° |
| 2026-05-07 23:09 | 34.08148 | -117.15080 | 14291 ft | 342 kts | 202° |
| 2026-05-07 23:09 | 34.05989 | -117.16233 | 13710 ft | 338 kts | 202° |
| 2026-05-07 23:09 | 34.03849 | -117.17375 | 13063 ft | 335 kts | 203° |
| 2026-05-07 23:10 | 34.01731 | -117.18504 | 12432 ft | 331 kts | 204° |
| 2026-05-07 23:10 | 33.99769 | -117.19889 | 12059 ft | 324 kts | 218° |
| 2026-05-07 23:10 | 33.98144 | -117.21750 | 11769 ft | 322 kts | 230° |
| 2026-05-07 23:10 | 33.96686 | -117.23794 | 11523 ft | 321 kts | 230° |
| 2026-05-07 23:11 | 33.95228 | -117.25824 | 11291 ft | 320 kts | 230° |
| 2026-05-07 23:11 | 33.93773 | -117.27844 | 11057 ft | 317 kts | 230° |
| 2026-05-07 23:11 | 33.92326 | -117.29858 | 10661 ft | 320 kts | 230° |
| 2026-05-07 23:11 | 33.90881 | -117.31893 | 10340 ft | 318 kts | 230° |
| 2026-05-07 23:12 | 33.89455 | -117.33911 | 10001 ft | 316 kts | 230° |
| 2026-05-07 23:12 | 33.88034 | -117.35921 | 9645 ft | 314 kts | 230° |
| 2026-05-07 23:12 | 33.86623 | -117.37913 | 9278 ft | 312 kts | 230° |
| 2026-05-07 23:12 | 33.85218 | -117.39894 | 8935 ft | 309 kts | 230° |
| 2026-05-07 23:13 | 33.83847 | -117.41828 | 8803 ft | 299 kts | 230° |
| 2026-05-07 23:13 | 33.82529 | -117.43698 | 8674 ft | 289 kts | 232° |
| 2026-05-07 23:13 | 33.81502 | -117.45708 | 8542 ft | 277 kts | 250° |
| 2026-05-07 23:13 | 33.80832 | -117.47847 | 8276 ft | 272 kts | 252° |
| 2026-05-07 23:14 | 33.80175 | -117.49941 | 8000 ft | 267 kts | 252° |
| 2026-05-07 23:14 | 33.79786 | -117.52033 | 7996 ft | 249 kts | 273° |
| 2026-05-07 23:14 | 33.80061 | -117.54058 | 7745 ft | 246 kts | 295° |
| 2026-05-07 23:14 | 33.80726 | -117.55952 | 7393 ft | 246 kts | 296° |
| 2026-05-07 23:15 | 33.81389 | -117.57855 | 7069 ft | 247 kts | 296° |
| 2026-05-07 23:15 | 33.82051 | -117.59762 | 6743 ft | 248 kts | 296° |
| 2026-05-07 23:15 | 33.82715 | -117.61682 | 6417 ft | 249 kts | 294° |
| 2026-05-07 23:15 | 33.83060 | -117.63744 | 5977 ft | 257 kts | 278° |
| 2026-05-07 23:16 | 33.83216 | -117.65913 | 5445 ft | 264 kts | 277° |
| 2026-05-07 23:16 | 33.83353 | -117.68142 | 4919 ft | 270 kts | 274° |
| 2026-05-07 23:16 | 33.83395 | -117.70413 | 4469 ft | 272 kts | 271° |
| 2026-05-07 23:16 | 33.83382 | -117.72685 | 4070 ft | 271 kts | 270° |
| 2026-05-07 23:17 | 33.83343 | -117.74923 | 3712 ft | 266 kts | 267° |
| 2026-05-07 23:17 | 33.82757 | -117.77004 | 3350 ft | 266 kts | 234° |
| 2026-05-07 23:17 | 33.81373 | -117.78454 | 3009 ft | 263 kts | 214° |
| 2026-05-07 23:17 | 33.79798 | -117.79526 | 2656 ft | 255 kts | 208° |
| 2026-05-07 23:18 | 33.78266 | -117.80411 | 2316 ft | 232 kts | 206° |
| 2026-05-07 23:18 | 33.76876 | -117.81189 | 2028 ft | 210 kts | 207° |
| 2026-05-07 23:18 | 33.75609 | -117.81918 | 1764 ft | 193 kts | 208° |
| 2026-05-07 23:18 | 33.74466 | -117.82595 | 1506 ft | 175 kts | 209° |
| 2026-05-07 23:19 | 33.73418 | -117.83229 | 1276 ft | 163 kts | 209° |
| 2026-05-07 23:19 | 33.72450 | -117.83826 | 1077 ft | 150 kts | 210° |
| 2026-05-07 23:19 | 33.71562 | -117.84378 | 896 ft | 140 kts | 207° |
| 2026-05-07 23:19 | 33.70719 | -117.84905 | 696 ft | 133 kts | 209° |
| 2026-05-07 23:20 | 33.69900 | -117.85427 | 515 ft | 133 kts | 207° |
| 2026-05-07 23:20 | 33.69074 | -117.85930 | 313 ft | 131 kts | 210° |
| 2026-05-07 23:20 | 33.68266 | -117.86441 | 108 ft | 130 kts | 209° |
| 2026-05-07 23:20 | 33.67483 | -117.86940 | 54 ft | 119 kts | 208° |
| 2026-05-07 23:21 | 33.67070 | -117.87201 | 54 ft | 29 kts | 208° |
| 2026-05-07 23:21 | 33.66936 | -117.87188 | 53 ft | 18 kts | 139° |
| 2026-05-07 23:21 | 33.66939 | -117.87066 | 50 ft | 16 kts | 41° |
| 2026-05-07 23:21 | 33.67022 | -117.86981 | 48 ft | 15 kts | 41° |
| 2026-05-07 23:22 | 33.67099 | -117.86902 | 50 ft | 14 kts | 40° |
| 2026-05-07 23:22 | 33.67178 | -117.86840 | 51 ft | 13 kts | 29° |
| 2026-05-07 23:22 | 33.67275 | -117.86768 | 51 ft | 21 kts | 35° |
| 2026-05-07 23:22 | 33.67384 | -117.86669 | 48 ft | 18 kts | 26° |
| 2026-05-07 23:23 | 33.67491 | -117.86599 | 51 ft | 17 kts | 29° |
| 2026-05-07 23:23 | 33.67590 | -117.86536 | 51 ft | 15 kts | 27° |
| 2026-05-07 23:23 | 33.67681 | -117.86478 | 51 ft | 14 kts | 27° |
| 2026-05-07 23:23 | 33.67743 | -117.86439 | 51 ft | 0 kts | 28° |
| 2026-05-07 23:24 | 33.67742 | -117.86418 | 50 ft | 6 kts | 128° |
| 2026-05-07 23:24 | 33.67719 | -117.86374 | 51 ft | 5 kts | 118° |
| 2026-05-07 23:24 | 33.67715 | -117.86364 | 51 ft | 0 kts | 118° |